Time;durP1;ratioP1;P1;durP2;ratioP2;P2;SDS_P1;SDS_P2;PMS_P1;PMS_P2;Temp;Humidity;BMP_temperature;BMP_pressure;BME280_temperature;BME280_humidity;BME280_pressure;Samples;Min_cycle;Max_cycle;Signal;HPM_P1;HPM_P2
2021/12/05 06:54:41;;;;;;;5.53;3.05;;;5.90;99.90;;;;;;5675750;23;20069;-83
2021/12/05 06:57:21;;;;;;;4.63;2.90;;;6.00;99.90;;;;;;5024309;28;20091;-91
2021/12/05 07:00:28;;;;;;;6.90;2.90;;;6.00;99.90;;;;;;5009976;28;20056;-92
2021/12/05 07:06:23;;;;;;;3.75;2.42;;;6.00;99.90;;;;;;5081210;22;20058;-90
2021/12/05 07:08:42;;;;;;;3.40;2.30;;;6.00;99.90;;;;;;5039644;28;20048;-87
2021/12/05 07:14:34;;;;;;;;;;;6.00;99.90;;;;;;5063631;22;20087;-79
2021/12/05 07:22:36;;;;;;;5.35;2.78;;;6.10;99.90;;;;;;5032307;28;20132;-91
2021/12/05 07:25:13;;;;;;;4.50;3.05;;;6.10;99.90;;;;;;5031056;28;20020;-86
2021/12/05 07:41:22;;;;;;;4.53;3.33;;;6.10;99.90;;;;;;5029952;28;20131;-86
2021/12/05 07:43:49;;;;;;;3.05;2.67;;;6.10;99.90;;;;;;5029974;28;20033;-91
2021/12/05 07:46:14;;;;;;;4.63;2.88;;;6.10;99.90;;;;;;5026456;28;20018;-76
2021/12/05 07:48:43;;;;;;;3.97;2.75;;;6.10;99.90;;;;;;5027294;28;20030;-84
2021/12/05 07:56:24;;;;;;;2.53;2.30;;;6.10;99.90;;;;;;5026653;28;20045;-84
2021/12/05 07:59:06;;;;;;;2.53;2.03;;;6.10;99.90;;;;;;5026895;28;20029;-82
2021/12/05 08:14:24;;;;;;;2.50;2.20;;;6.00;99.90;;;;;;5029716;28;20404;-90
2021/12/05 08:15:43;;;;;;;2.13;1.92;;;6.00;99.90;;;;;;5030845;28;20040;-91
2021/12/05 08:18:08;;;;;;;3.75;2.40;;;6.00;99.90;;;;;;5030748;28;20393;-85
2021/12/05 08:20:38;;;;;;;2.67;2.47;;;6.00;99.90;;;;;;5030463;28;20021;-91
2021/12/05 08:23:05;;;;;;;2.50;2.30;;;6.00;99.90;;;;;;5029845;28;20473;-87
2021/12/05 08:25:33;;;;;;;2.78;2.58;;;6.00;99.90;;;;;;5029900;28;20036;-89
2021/12/05 08:30:39;;;;;;;3.00;2.70;;;6.00;99.90;;;;;;5034757;28;20039;-88
2021/12/05 08:41:00;;;;;;;2.60;2.40;;;6.10;99.90;;;;;;5035339;28;20035;-89
2021/12/05 08:43:42;;;;;;;3.45;2.95;;;6.10;99.90;;;;;;5034388;28;20116;-90
2021/12/05 09:21:58;;;;;;;3.25;2.95;;;6.40;99.90;;;;;;5033364;28;20128;-84
2021/12/05 09:27:46;;;;;;;3.20;2.90;;;6.40;99.90;;;;;;5018042;28;20091;-80
2021/12/05 09:30:23;;;;;;;2.92;2.72;;;6.40;99.90;;;;;;5033282;28;20049;-79
2021/12/05 10:03:33;;;;;;;3.67;3.38;;;6.50;99.90;;;;;;5033772;28;20032;-88
2021/12/05 10:08:59;;;;;;;3.92;3.50;;;6.50;99.90;;;;;;5032838;28;20095;-79
2021/12/05 10:11:36;;;;;;;3.72;3.22;;;6.60;99.90;;;;;;5031738;28;20022;-77
2021/12/05 10:19:44;;;;;;;4.03;3.63;;;6.70;99.90;;;;;;5033371;28;20501;-85
2021/12/05 10:34:43;;;;;;;3.08;2.80;;;6.70;99.90;;;;;;5033462;28;20037;-89
2021/12/05 10:37:10;;;;;;;;;;;6.80;99.90;;;;;;5031999;28;20470;-87
2021/12/05 10:39:37;;;;;;;5.68;3.60;;;6.80;99.90;;;;;;5031685;28;19905;-88
2021/12/05 10:42:34;;;;;;;3.50;3.00;;;6.80;99.90;;;;;;5031774;28;20041;-88
2021/12/05 10:45:00;;;;;;;3.17;2.88;;;6.80;99.90;;;;;;5031739;28;20021;-85
2021/12/05 10:47:45;;;;;;;3.72;3.40;;;6.90;99.90;;;;;;5031425;28;20033;-85
2021/12/05 10:50:43;;;;;;;3.70;3.40;;;6.90;99.90;;;;;;5031225;28;20504;-80
2021/12/05 10:53:47;;;;;;;4.88;3.10;;;6.90;99.90;;;;;;5032052;28;20053;-87
2021/12/05 10:56:19;;;;;;;3.42;3.13;;;7.00;99.90;;;;;;5031084;28;20225;-85
2021/12/05 10:58:56;;;;;;;3.60;3.25;;;6.90;99.90;;;;;;5031137;28;20025;-84
2021/12/05 11:01:36;;;;;;;3.13;2.90;;;7.00;99.90;;;;;;5031629;28;20167;-86
2021/12/05 11:04:04;;;;;;;4.32;3.72;;;7.00;99.90;;;;;;5030762;28;20075;-87
2021/12/05 11:06:40;;;;;;;4.75;3.63;;;6.90;99.90;;;;;;5031201;28;20174;-86
2021/12/05 11:09:14;;;;;;;3.33;3.10;;;6.90;99.90;;;;;;5031793;28;20021;-86
2021/12/05 11:11:43;;;;;;;4.15;3.50;;;6.90;99.90;;;;;;5030667;28;20025;-87
2021/12/05 11:14:12;;;;;;;4.90;3.80;;;7.00;99.90;;;;;;5031326;28;20131;-82
2021/12/05 11:16:40;;;;;;;3.70;3.40;;;7.00;99.90;;;;;;5031297;28;20026;-87
2021/12/05 11:19:12;;;;;;;5.13;3.40;;;7.10;99.90;;;;;;5031047;28;20025;-85
2021/12/05 11:21:46;;;;;;;3.55;3.25;;;7.20;99.90;;;;;;5031424;28;20025;-85
2021/12/05 11:24:19;;;;;;;3.80;3.47;;;7.30;99.90;;;;;;5030873;28;20108;-79
2021/12/05 11:27:08;;;;;;;4.32;3.92;;;7.30;99.90;;;;;;5029877;28;20033;-83
2021/12/05 11:30:00;;;;;;;3.92;3.42;;;7.30;99.90;;;;;;5030254;28;20107;-78
2021/12/05 11:32:44;;;;;;;4.40;4.00;;;7.40;99.90;;;;;;5029754;28;20112;-88
2021/12/05 11:35:09;;;;;;;4.25;3.85;;;7.40;99.90;;;;;;5030678;28;20033;-83
2021/12/05 11:37:55;;;;;;;4.63;3.70;;;7.50;99.90;;;;;;5030390;28;20024;-86
2021/12/05 11:40:24;;;;;;;4.40;4.00;;;7.50;99.90;;;;;;5029781;28;20032;-78
2021/12/05 11:42:56;;;;;;;4.10;3.65;;;7.50;99.90;;;;;;5030615;28;20017;-79
2021/12/05 11:45:44;;;;;;;4.63;3.72;;;7.50;99.90;;;;;;5030275;28;20481;-85
2021/12/05 11:48:24;;;;;;;5.30;3.88;;;7.50;99.90;;;;;;5029451;28;20037;-77
2021/12/05 11:50:50;;;;;;;5.25;3.50;;;7.50;99.90;;;;;;5030780;28;20025;-80
2021/12/05 11:53:34;;;;;;;3.58;3.33;;;7.50;99.90;;;;;;5029763;28;20615;-78
2021/12/05 11:56:00;;;;;;;4.43;4.03;;;7.50;99.90;;;;;;5030580;28;20413;-77
2021/12/05 11:58:25;;;;;;;4.60;3.55;;;7.50;99.90;;;;;;5029951;28;20021;-79
2021/12/05 12:00:51;;;;;;;5.03;3.72;;;7.50;99.90;;;;;;5030168;28;20029;-87
2021/12/05 12:03:30;;;;;;;4.65;4.20;;;7.50;99.90;;;;;;5032695;28;20024;-77
2021/12/05 12:05:56;;;;;;;4.38;3.97;;;7.60;99.90;;;;;;5034781;28;20018;-82
2021/12/05 12:08:24;;;;;;;4.50;3.50;;;7.50;99.90;;;;;;5033673;28;20030;-79
2021/12/05 12:10:57;;;;;;;3.55;3.25;;;7.60;99.90;;;;;;5034488;28;20040;-79
2021/12/05 12:13:27;;;;;;;4.82;4.32;;;7.60;99.90;;;;;;5033941;28;20045;-81
2021/12/05 12:15:59;;;;;;;5.47;4.43;;;7.60;99.90;;;;;;5033500;28;20029;-78
2021/12/05 12:18:30;;;;;;;;;;;7.60;99.90;;;;;;5034436;28;20365;-77
2021/12/05 12:20:59;;;;;;;3.70;3.40;;;7.50;99.90;;;;;;5033462;28;19905;-85
2021/12/05 12:23:25;;;;;;;4.07;3.67;;;7.60;99.90;;;;;;5033762;28;20021;-78
2021/12/05 12:25:54;;;;;;;3.80;3.50;;;7.60;99.90;;;;;;5034244;28;20112;-83
2021/12/05 12:28:20;;;;;;;3.70;3.40;;;7.60;99.90;;;;;;5033141;28;20037;-86
2021/12/05 12:31:02;;;;;;;6.85;4.63;;;7.60;99.90;;;;;;5034440;28;20108;-78
2021/12/05 12:33:33;;;;;;;4.57;3.50;;;7.60;99.90;;;;;;5034096;28;20021;-85
2021/12/05 12:35:58;;;;;;;4.35;3.55;;;7.60;99.90;;;;;;5033137;28;20108;-84
2021/12/05 12:38:37;;;;;;;3.70;3.40;;;7.60;99.90;;;;;;5033933;28;20427;-84
2021/12/05 12:41:16;;;;;;;3.78;3.47;;;7.60;99.90;;;;;;5034273;28;20025;-85
2021/12/05 12:43:41;;;;;;;3.88;3.58;;;7.70;99.90;;;;;;5033467;28;20022;-81
2021/12/05 12:46:29;;;;;;;3.92;3.63;;;7.70;99.90;;;;;;5034387;28;20025;-80
2021/12/05 12:49:18;;;;;;;3.50;3.20;;;7.70;99.90;;;;;;5035092;28;20056;-80
2021/12/05 12:52:14;;;;;;;3.33;3.00;;;7.70;99.90;;;;;;5017207;28;20041;-89
2021/12/05 12:54:52;;;;;;;3.70;3.38;;;7.70;99.90;;;;;;5034026;28;20050;-84
2021/12/05 12:57:24;;;;;;;3.60;3.30;;;7.60;99.90;;;;;;5033574;28;20022;-85
2021/12/05 13:00:04;;;;;;;4.93;4.18;;;7.60;99.90;;;;;;5034817;28;20075;-81
2021/12/05 13:10:52;;;;;;;3.40;3.10;;;7.70;99.90;;;;;;5035352;28;20100;-79
2021/12/05 13:13:26;;;;;;;3.50;3.20;;;7.60;99.90;;;;;;5032484;28;20519;-78
2021/12/05 13:15:57;;;;;;;4.20;3.80;;;7.60;99.90;;;;;;5033575;28;20029;-80
2021/12/05 13:18:28;;;;;;;2.90;2.70;;;7.60;99.90;;;;;;5032326;28;20163;-87
2021/12/05 13:20:58;;;;;;;3.28;2.80;;;7.60;99.90;;;;;;5034087;28;20424;-81
2021/12/05 13:23:38;;;;;;;2.75;2.55;;;7.60;99.90;;;;;;5033595;28;20022;-81
2021/12/05 13:26:09;;;;;;;3.00;2.80;;;7.60;99.90;;;;;;5033902;28;20026;-76
2021/12/05 13:28:38;;;;;;;4.00;2.97;;;7.60;99.90;;;;;;5033494;28;20140;-90
2021/12/05 13:31:28;;;;;;;3.35;3.05;;;7.60;99.90;;;;;;5033647;28;20068;-84
2021/12/05 13:34:21;;;;;;;2.80;2.58;;;7.50;99.90;;;;;;5033734;28;20041;-87
2021/12/05 13:36:55;;;;;;;2.65;2.30;;;7.50;99.90;;;;;;5033036;28;20018;-87
2021/12/05 13:39:35;;;;;;;2.75;2.55;;;7.50;99.90;;;;;;5032946;28;20047;-79
2021/12/05 13:42:16;;;;;;;5.70;3.20;;;7.60;99.90;;;;;;5033597;28;20037;-83
2021/12/05 13:45:06;;;;;;;3.97;3.20;;;7.50;99.90;;;;;;5034116;28;20071;-86
2021/12/05 13:47:44;;;;;;;2.90;2.70;;;7.60;99.90;;;;;;5033893;28;20582;-82
2021/12/05 13:50:21;;;;;;;2.80;2.60;;;7.60;99.90;;;;;;5032638;28;20029;-82
2021/12/05 13:52:55;;;;;;;3.17;2.83;;;7.50;99.90;;;;;;5033464;28;20109;-89
2021/12/05 13:55:56;;;;;;;3.58;3.03;;;7.50;99.90;;;;;;5032709;28;20029;-83
2021/12/05 13:58:38;;;;;;;2.88;2.67;;;7.50;99.90;;;;;;5032576;28;20025;-85
2021/12/05 14:01:25;;;;;;;3.20;2.63;;;7.50;99.90;;;;;;5032627;28;20131;-86
2021/12/05 14:04:10;;;;;;;2.92;2.72;;;7.50;99.90;;;;;;5033327;28;20087;-81
2021/12/05 14:06:58;;;;;;;3.40;2.90;;;7.40;99.90;;;;;;5031834;28;20079;-86
2021/12/05 14:09:31;;;;;;;3.78;3.17;;;7.40;99.90;;;;;;5032619;28;20026;-80
2021/12/05 14:12:37;;;;;;;3.20;2.90;;;7.40;99.90;;;;;;5032327;28;20049;-84
2021/12/05 14:15:06;;;;;;;3.25;2.90;;;7.40;99.90;;;;;;4983782;28;20038;-83
2021/12/05 14:17:37;;;;;;;5.55;3.10;;;7.40;99.90;;;;;;5031681;28;20555;-77
2021/12/05 14:20:13;;;;;;;3.20;2.90;;;7.40;99.90;;;;;;5032641;28;20018;-86
2021/12/05 14:22:40;;;;;;;3.40;3.20;;;7.40;99.90;;;;;;5032172;28;20063;-85
2021/12/05 14:25:12;;;;;;;3.95;3.50;;;7.40;99.90;;;;;;5031939;28;20386;-87
2021/12/05 14:27:48;;;;;;;3.67;3.38;;;7.30;99.90;;;;;;5031296;28;20494;-83
2021/12/05 14:30:21;;;;;;;3.00;2.80;;;7.40;99.90;;;;;;5031941;28;20021;-81
2021/12/05 14:32:48;;;;;;;3.72;3.42;;;7.40;99.90;;;;;;5032391;28;20393;-81
2021/12/05 14:35:21;;;;;;;3.85;3.47;;;7.40;99.90;;;;;;5031335;28;20029;-83
2021/12/05 14:37:50;;;;;;;3.80;3.50;;;7.30;99.90;;;;;;5031973;28;20461;-87
2021/12/05 14:40:21;;;;;;;4.78;4.05;;;7.30;99.90;;;;;;5031629;28;20026;-86
2021/12/05 14:42:49;;;;;;;5.07;4.47;;;7.30;99.90;;;;;;5031419;28;20029;-80
2021/12/05 14:45:22;;;;;;;6.10;4.30;;;7.30;99.90;;;;;;5031501;28;20533;-76
2021/12/05 14:47:48;;;;;;;5.13;4.22;;;7.30;99.90;;;;;;5025974;28;20037;-80
2021/12/05 14:50:25;;;;;;;3.88;3.50;;;7.30;99.90;;;;;;5031043;28;20100;-86
2021/12/05 14:52:55;;;;;;;4.80;4.03;;;7.30;99.90;;;;;;5031513;28;20115;-81
2021/12/05 14:55:23;;;;;;;5.13;4.60;;;7.30;99.90;;;;;;5031383;28;20025;-82
2021/12/05 14:57:54;;;;;;;4.20;3.80;;;7.20;99.90;;;;;;5031208;28;20120;-80
2021/12/05 15:00:24;;;;;;;5.50;3.67;;;7.30;99.90;;;;;;5032461;28;20492;-84
2021/12/05 15:03:06;;;;;;;4.43;4.00;;;7.20;99.90;;;;;;5031566;28;20025;-83
2021/12/05 15:05:35;;;;;;;5.57;4.05;;;7.20;99.90;;;;;;5030897;28;20116;-79
2021/12/05 15:08:02;;;;;;;3.83;3.40;;;7.20;99.90;;;;;;5031253;28;20029;-82
2021/12/05 15:10:28;;;;;;;4.00;3.60;;;7.20;99.90;;;;;;5030230;28;20108;-88
2021/12/05 15:12:54;;;;;;;5.03;4.00;;;7.20;99.90;;;;;;5032447;28;20043;-85
2021/12/05 15:15:22;;;;;;;4.10;3.80;;;7.20;99.90;;;;;;5031082;28;20035;-87
2021/12/05 15:17:48;;;;;;;4.40;4.00;;;7.20;99.90;;;;;;5030506;28;20017;-80
2021/12/05 15:20:18;;;;;;;5.07;4.50;;;7.20;99.90;;;;;;5030460;28;20028;-78
2021/12/05 15:22:46;;;;;;;4.85;4.35;;;7.20;99.90;;;;;;5030796;28;20021;-89
2021/12/05 15:25:17;;;;;;;5.68;4.07;;;7.20;99.90;;;;;;5031456;28;20048;-78
2021/12/05 15:27:44;;;;;;;6.78;4.47;;;7.10;99.90;;;;;;5030637;28;20041;-82
2021/12/05 15:30:18;;;;;;;5.15;4.20;;;7.10;99.90;;;;;;5031021;28;20017;-83
2021/12/05 15:32:45;;;;;;;4.00;3.58;;;7.10;99.90;;;;;;5030163;28;20040;-83
2021/12/05 15:35:16;;;;;;;5.45;3.80;;;7.10;99.90;;;;;;5030656;28;20082;-84
2021/12/05 15:37:48;;;;;;;6.10;4.38;;;7.10;99.90;;;;;;5029746;28;20112;-85
2021/12/05 15:40:15;;;;;;;4.97;4.00;;;7.10;99.90;;;;;;5030691;28;20425;-80
2021/12/05 15:42:41;;;;;;;5.35;3.50;;;7.10;99.90;;;;;;5030471;28;20056;-80
2021/12/05 15:45:10;;;;;;;5.20;4.25;;;7.10;99.90;;;;;;5029811;28;20025;-86
2021/12/05 15:47:37;;;;;;;4.25;3.85;;;7.10;99.90;;;;;;5030148;28;20183;-87
2021/12/05 15:50:15;;;;;;;5.70;4.38;;;7.10;99.90;;;;;;5030766;28;20462;-84
2021/12/05 15:52:57;;;;;;;6.55;3.88;;;7.10;99.90;;;;;;5029939;28;20065;-86
2021/12/05 15:55:23;;;;;;;6.75;4.60;;;7.10;99.90;;;;;;5030379;28;20112;-86
2021/12/05 15:57:53;;;;;;;5.32;3.97;;;7.00;99.90;;;;;;5030505;28;20064;-83
2021/12/05 16:00:32;;;;;;;5.28;3.80;;;7.10;99.90;;;;;;5029859;28;20026;-89
2021/12/05 16:03:10;;;;;;;5.15;3.75;;;7.00;99.90;;;;;;5030672;28;20446;-82
2021/12/05 16:05:41;;;;;;;4.85;3.83;;;7.00;99.90;;;;;;5030120;28;20557;-85
2021/12/05 16:08:10;;;;;;;4.60;4.07;;;7.10;99.90;;;;;;5029660;28;20116;-83
2021/12/05 16:10:40;;;;;;;6.00;4.13;;;7.10;99.90;;;;;;5030109;28;20032;-84
2021/12/05 16:13:14;;;;;;;4.97;4.13;;;7.00;99.90;;;;;;5029706;28;20112;-86
2021/12/05 16:15:43;;;;;;;4.93;3.88;;;7.10;99.90;;;;;;5030466;28;20025;-86
2021/12/05 16:18:09;;;;;;;3.78;3.40;;;7.00;99.90;;;;;;5030402;28;20021;-81
2021/12/05 16:20:35;;;;;;;6.80;3.97;;;7.00;99.90;;;;;;5029550;28;20018;-82
2021/12/05 16:23:13;;;;;;;6.10;4.70;;;7.00;99.90;;;;;;5030265;28;20033;-80
2021/12/05 16:25:46;;;;;;;4.55;3.95;;;7.00;99.90;;;;;;5030367;28;20029;-81
2021/12/05 16:28:13;;;;;;;6.32;4.70;;;7.00;99.90;;;;;;5029147;28;20037;-80
2021/12/05 16:30:46;;;;;;;5.47;3.85;;;7.00;99.90;;;;;;5030293;28;20033;-85
2021/12/05 16:33:14;;;;;;;11.48;4.53;;;7.00;99.90;;;;;;5029977;28;20014;-81
2021/12/05 16:35:50;;;;;;;5.65;4.38;;;7.00;99.90;;;;;;5029545;28;20496;-81
2021/12/05 16:38:28;;;;;;;6.88;5.65;;;7.00;99.90;;;;;;5030261;28;20113;-84
2021/12/05 16:40:56;;;;;;;7.75;6.10;;;6.90;99.90;;;;;;5031501;28;20104;-82
2021/12/05 16:43:22;;;;;;;8.13;6.07;;;6.90;99.90;;;;;;5029510;28;20079;-80
2021/12/05 16:45:55;;;;;;;8.13;6.60;;;6.90;99.90;;;;;;5026173;28;20466;-84
2021/12/05 16:48:21;;;;;;;9.82;7.03;;;6.90;99.90;;;;;;5028859;28;20095;-79
2021/12/05 16:50:46;;;;;;;9.10;6.78;;;6.90;99.90;;;;;;5034206;28;20053;-83
2021/12/05 16:53:14;;;;;;;8.18;6.95;;;6.80;99.90;;;;;;5033906;28;20034;-83
2021/12/05 16:55:45;;;;;;;7.53;6.45;;;6.80;99.90;;;;;;5032550;28;20534;-81
2021/12/05 16:58:17;;;;;;;;;;;6.80;99.90;;;;;;5034024;28;20025;-79
2021/12/05 17:00:48;;;;;;;7.72;5.65;;;6.80;99.90;;;;;;5033788;28;19912;-79
2021/12/05 17:03:19;;;;;;;7.50;5.90;;;6.80;99.90;;;;;;5033606;28;20025;-78
2021/12/05 17:05:48;;;;;;;6.43;5.82;;;6.80;99.90;;;;;;5031999;28;20026;-81
2021/12/05 17:08:20;;;;;;;8.18;6.03;;;6.80;99.90;;;;;;5020836;28;20049;-84
2021/12/05 17:11:06;;;;;;;8.85;6.85;;;6.80;99.90;;;;;;5015046;28;20026;-89
2021/12/05 17:13:33;;;;;;;8.55;6.65;;;6.80;99.90;;;;;;5013267;28;20061;-87
2021/12/05 17:16:08;;;;;;;8.60;7.45;;;6.80;99.90;;;;;;5018881;28;20028;-84
2021/12/05 17:18:37;;;;;;;7.90;6.90;;;6.80;99.90;;;;;;5031715;28;20030;-84
2021/12/05 17:21:18;;;;;;;10.02;7.43;;;6.80;99.90;;;;;;5033079;28;20029;-94
2021/12/05 17:24:01;;;;;;;6.75;6.05;;;6.80;99.90;;;;;;5032245;28;21010;-88
2021/12/05 17:26:31;;;;;;;8.75;7.22;;;6.80;99.90;;;;;;5029993;28;20025;-81
2021/12/05 17:29:19;;;;;;;8.93;7.25;;;6.80;99.90;;;;;;5030757;28;20030;-83
2021/12/05 17:32:25;;;;;;;9.70;7.95;;;6.80;99.90;;;;;;5034027;28;20059;-91
2021/12/05 17:34:57;;;;;;;9.13;7.50;;;6.80;99.90;;;;;;5030385;28;20052;-84
2021/12/05 17:37:27;;;;;;;11.38;8.70;;;6.80;99.90;;;;;;5028082;28;20131;-90
2021/12/05 17:39:54;;;;;;;10.38;9.27;;;6.80;99.90;;;;;;5030642;28;20068;-89
2021/12/05 17:42:26;;;;;;;9.80;8.32;;;6.80;99.90;;;;;;5031483;28;20021;-83
2021/12/05 17:44:55;;;;;;;10.18;8.52;;;6.80;99.90;;;;;;5035105;28;20061;-80
2021/12/05 17:47:27;;;;;;;12.18;10.63;;;6.80;99.90;;;;;;5026783;28;20041;-86
2021/12/05 17:49:55;;;;;;;10.48;8.25;;;6.80;99.90;;;;;;5026430;28;20064;-82
2021/12/05 17:52:24;;;;;;;12.13;9.63;;;6.80;99.90;;;;;;4998037;28;20034;-79
2021/12/05 17:54:57;;;;;;;10.20;9.18;;;6.80;99.90;;;;;;5016587;28;20026;-81
2021/12/05 17:58:06;;;;;;;12.32;9.32;;;6.80;99.90;;;;;;5030788;28;20021;-82
2021/12/05 18:02:57;;;;;;;11.93;10.25;;;6.80;99.90;;;;;;5031174;28;20041;-82
2021/12/05 18:05:28;;;;;;;12.43;9.98;;;6.80;99.90;;;;;;5028120;28;20025;-82
2021/12/05 18:07:57;;;;;;;11.00;9.52;;;6.70;99.90;;;;;;5030963;28;20072;-81
2021/12/05 18:10:27;;;;;;;11.63;9.93;;;6.70;99.90;;;;;;5028565;28;20031;-83
2021/12/05 18:12:57;;;;;;;10.60;9.38;;;6.80;99.90;;;;;;5026625;28;20038;-79
2021/12/05 18:15:28;;;;;;;10.18;9.05;;;6.70;99.90;;;;;;5028234;28;20029;-82
2021/12/05 18:17:57;;;;;;;12.60;9.55;;;6.80;99.90;;;;;;5025008;28;20033;-80
2021/12/05 18:20:25;;;;;;;10.93;9.45;;;6.80;99.90;;;;;;5011132;28;20371;-85
2021/12/05 18:22:58;;;;;;;11.20;8.20;;;6.80;99.90;;;;;;5011151;28;20026;-85
2021/12/05 18:25:24;;;;;;;10.73;9.63;;;6.80;99.90;;;;;;5027023;28;20045;-84
2021/12/05 18:27:50;;;;;;;13.93;11.07;;;6.80;99.90;;;;;;5029926;28;20029;-81
2021/12/05 18:30:19;;;;;;;12.57;10.88;;;6.80;99.90;;;;;;5030354;28;20036;-84
2021/12/05 18:32:45;;;;;;;14.43;10.18;;;6.80;99.90;;;;;;5027549;28;20033;-80
2021/12/05 18:35:12;;;;;;;11.27;10.05;;;6.80;99.90;;;;;;5030141;28;20060;-81
2021/12/05 18:37:41;;;;;;;14.25;10.80;;;6.80;99.90;;;;;;5028401;28;20025;-89
2021/12/05 18:40:07;;;;;;;12.85;10.50;;;6.80;99.90;;;;;;5026931;28;20163;-79
2021/12/05 18:42:33;;;;;;;13.10;10.63;;;6.80;99.90;;;;;;5009650;28;20033;-81
2021/12/05 18:45:01;;;;;;;13.82;11.68;;;6.80;99.90;;;;;;5025544;28;20026;-83
2021/12/05 18:47:28;;;;;;;14.50;10.35;;;6.80;99.90;;;;;;5022976;28;20041;-81
2021/12/05 18:49:55;;;;;;;12.90;10.88;;;6.80;99.90;;;;;;5012102;28;20029;-87
2021/12/05 18:52:23;;;;;;;12.20;11.00;;;6.80;99.90;;;;;;5008783;28;20125;-81
2021/12/05 18:54:50;;;;;;;11.82;10.07;;;6.80;99.90;;;;;;5009338;28;20052;-92
2021/12/05 18:57:20;;;;;;;11.73;10.52;;;6.80;99.90;;;;;;5008913;28;20033;-81
2021/12/05 18:59:57;;;;;;;12.68;11.32;;;6.80;99.90;;;;;;5009634;28;20024;-79
2021/12/05 19:05:12;;;;;;;11.32;9.55;;;6.80;99.90;;;;;;5029528;28;20044;-88
2021/12/05 19:08:17;;;;;;;11.88;9.80;;;6.80;99.90;;;;;;5027768;28;20029;-80
2021/12/05 19:13:12;;;;;;;10.55;9.45;;;6.80;99.90;;;;;;5029154;28;20060;-82
2021/12/05 19:15:38;;;;;;;11.68;10.43;;;6.80;99.90;;;;;;5028461;28;20029;-84
2021/12/05 19:18:04;;;;;;;13.88;11.35;;;6.80;99.90;;;;;;5028611;28;20033;-88
2021/12/05 19:20:30;;;;;;;12.18;10.93;;;6.90;99.90;;;;;;5025403;28;20052;-80
2021/12/05 19:22:58;;;;;;;12.55;10.88;;;6.80;99.90;;;;;;5043463;28;20094;-86
2021/12/05 19:25:26;;;;;;;11.20;9.50;;;6.80;99.90;;;;;;5028305;28;20036;-86
2021/12/05 19:27:54;;;;;;;11.73;10.20;;;6.80;99.90;;;;;;5026015;28;20073;-81
2021/12/05 19:30:25;;;;;;;12.70;10.02;;;6.80;99.90;;;;;;5024852;28;20079;-84
2021/12/05 19:32:51;;;;;;;8.40;6.97;;;6.90;99.90;;;;;;5023408;28;20528;-86
2021/12/05 19:35:18;;;;;;;12.85;10.63;;;6.90;99.90;;;;;;5023610;28;20118;-84
2021/12/05 19:37:45;;;;;;;12.07;10.77;;;6.80;99.90;;;;;;5029390;28;20057;-79
2021/12/05 19:40:18;;;;;;;12.93;10.95;;;6.80;99.90;;;;;;5034068;28;20033;-80
2021/12/05 19:42:46;;;;;;;14.88;11.45;;;6.80;99.90;;;;;;5035178;28;20025;-89
2021/12/05 19:45:12;;;;;;;12.43;11.20;;;6.80;99.90;;;;;;5032284;28;20589;-78
2021/12/05 19:47:40;;;;;;;15.23;11.48;;;6.80;99.90;;;;;;5028317;28;20045;-89
2021/12/05 19:50:08;;;;;;;10.90;9.82;;;6.70;99.90;;;;;;5013855;28;20017;-80
2021/12/05 19:52:33;;;;;;;12.07;10.65;;;6.70;99.90;;;;;;5035327;28;20461;-80
2021/12/05 19:54:59;;;;;;;11.38;10.27;;;6.70;99.90;;;;;;5039154;28;20032;-93
2021/12/05 19:57:26;;;;;;;11.00;9.77;;;6.70;99.90;;;;;;5028357;28;20086;-78
2021/12/05 19:59:52;;;;;;;11.20;9.93;;;6.70;99.90;;;;;;5031971;28;20037;-80
2021/12/05 20:02:18;;;;;;;11.40;10.30;;;6.70;99.90;;;;;;5047100;28;20026;-80
2021/12/05 20:04:47;;;;;;;14.25;12.00;;;6.70;99.90;;;;;;5044179;28;20049;-88
2021/12/05 20:07:14;;;;;;;13.45;12.15;;;6.70;99.90;;;;;;5038774;28;20045;-84
2021/12/05 20:09:40;;;;;;;15.48;12.43;;;6.70;99.90;;;;;;5031606;28;20026;-85
2021/12/05 20:12:06;;;;;;;11.60;10.48;;;6.70;99.90;;;;;;5029014;28;20032;-79
2021/12/05 20:14:32;;;;;;;12.38;11.15;;;6.70;99.90;;;;;;5029850;28;20049;-78
2021/12/05 20:16:58;;;;;;;12.88;11.63;;;6.70;99.90;;;;;;5031988;28;20018;-79
2021/12/05 20:19:23;;;;;;;16.27;11.88;;;6.70;99.90;;;;;;5035051;28;20033;-79
2021/12/05 20:21:51;;;;;;;12.90;11.70;;;6.70;99.90;;;;;;5036267;28;20033;-85
2021/12/05 20:24:19;;;;;;;14.00;12.18;;;6.70;99.90;;;;;;5042715;28;20049;-78
2021/12/05 20:26:46;;;;;;;13.10;11.50;;;6.70;99.90;;;;;;5045515;28;20370;-78
2021/12/05 20:29:12;;;;;;;15.65;12.30;;;6.70;99.90;;;;;;5048044;28;20064;-78
2021/12/05 20:31:38;;;;;;;15.10;12.38;;;6.70;99.90;;;;;;5043064;28;20029;-78
2021/12/05 20:34:04;;;;;;;14.35;11.52;;;6.70;99.90;;;;;;5052737;23;20056;-78
2021/12/05 20:36:30;;;;;;;12.85;11.52;;;6.60;99.90;;;;;;5064481;28;20021;-78
2021/12/05 20:38:56;;;;;;;13.98;12.63;;;6.70;99.90;;;;;;5064791;28;20025;-78
2021/12/05 20:41:22;;;;;;;12.90;11.63;;;6.60;99.90;;;;;;5046728;28;20052;-78
2021/12/05 20:43:49;;;;;;;14.05;12.65;;;6.60;99.90;;;;;;5046162;28;20408;-79
2021/12/05 20:46:16;;;;;;;14.98;12.70;;;6.60;99.90;;;;;;5035430;28;20322;-79
2021/12/05 20:48:42;;;;;;;14.75;13.27;;;6.60;99.90;;;;;;5030723;28;20036;-78
2021/12/05 20:51:08;;;;;;;13.82;12.52;;;6.60;99.90;;;;;;5031996;28;20026;-78
2021/12/05 20:56:05;;;;;;;16.83;15.02;;;6.60;99.90;;;;;;5014583;28;20049;-86
2021/12/05 20:58:31;;;;;;;16.63;14.88;;;6.60;99.90;;;;;;4986474;28;20037;-78
2021/12/05 21:01:01;;;;;;;15.73;14.13;;;6.60;99.90;;;;;;4974456;28;20442;-78
2021/12/05 21:03:29;;;;;;;14.00;12.60;;;6.50;99.90;;;;;;5011224;28;20038;-79
2021/12/05 21:05:59;;;;;;;14.43;12.93;;;6.50;99.90;;;;;;4994246;28;20108;-82
2021/12/05 21:08:30;;;;;;;13.90;11.75;;;6.60;99.90;;;;;;5009556;28;20048;-79
2021/12/05 21:10:56;;;;;;;14.40;12.88;;;6.60;99.90;;;;;;4994500;28;20022;-80
2021/12/05 21:14:03;;;;;;;14.18;12.73;;;6.60;99.90;;;;;;4990020;28;20044;-82
2021/12/05 21:16:35;;;;;;;12.25;10.98;;;6.60;99.90;;;;;;4980066;28;20042;-84
2021/12/05 21:19:01;;;;;;;18.95;13.85;;;6.60;99.90;;;;;;4990408;23;20062;-84
2021/12/05 21:21:26;;;;;;;13.27;11.63;;;6.60;99.90;;;;;;4994024;28;20826;-88
2021/12/05 21:23:54;;;;;;;16.45;13.60;;;6.60;99.90;;;;;;4992604;28;20102;-84
2021/12/05 21:26:20;;;;;;;15.27;13.68;;;6.60;99.90;;;;;;4988710;28;20030;-90
2021/12/05 21:28:47;;;;;;;13.45;12.15;;;6.60;99.90;;;;;;4980768;28;20052;-84
2021/12/05 21:31:13;;;;;;;15.05;13.45;;;6.60;99.90;;;;;;4994554;28;20030;-82
2021/12/05 21:33:40;;;;;;;15.07;13.50;;;6.60;99.90;;;;;;4998685;28;20034;-84
2021/12/05 21:36:08;;;;;;;15.98;14.32;;;6.60;99.90;;;;;;4975294;28;20606;-90
2021/12/05 21:38:35;;;;;;;18.08;16.17;;;6.60;99.90;;;;;;4992044;28;20072;-92
2021/12/05 21:41:04;;;;;;;17.50;15.10;;;6.60;99.90;;;;;;4991894;28;20028;-86
2021/12/05 21:43:31;;;;;;;16.65;14.95;;;6.60;99.90;;;;;;4990386;28;20038;-90
2021/12/05 21:45:57;;;;;;;17.45;14.55;;;6.60;99.90;;;;;;4991976;28;20056;-86
2021/12/05 21:48:23;;;;;;;16.02;14.30;;;6.60;99.90;;;;;;4993415;23;20054;-87
2021/12/05 21:50:48;;;;;;;16.17;14.13;;;6.50;99.90;;;;;;4971509;28;20026;-86
2021/12/05 21:53:17;;;;;;;17.77;15.18;;;6.50;99.90;;;;;;4972029;28;20612;-86
2021/12/05 21:55:47;;;;;;;17.38;15.02;;;6.50;99.90;;;;;;4982562;28;20110;-85
2021/12/05 21:58:15;;;;;;;15.82;13.55;;;6.50;99.90;;;;;;4979294;28;20031;-92
2021/12/05 22:00:44;;;;;;;15.38;13.77;;;6.50;99.90;;;;;;4976077;28;20264;-92
2021/12/05 22:03:11;;;;;;;16.25;14.55;;;6.50;99.90;;;;;;4975151;28;20023;-84
2021/12/05 22:05:38;;;;;;;14.20;12.65;;;6.50;99.90;;;;;;4963559;28;20394;-91
2021/12/05 22:08:05;;;;;;;12.95;11.65;;;6.50;99.90;;;;;;4973383;28;20479;-96
2021/12/05 22:10:31;;;;;;;13.98;12.57;;;6.50;99.90;;;;;;4971863;28;20036;-86
2021/12/05 22:12:58;;;;;;;14.35;12.40;;;6.50;99.90;;;;;;4974969;28;20050;-83
2021/12/05 22:15:28;;;;;;;17.77;14.40;;;6.50;99.90;;;;;;4975579;28;20073;-93
2021/12/05 22:17:54;;;;;;;16.95;13.35;;;6.50;99.90;;;;;;4979469;28;20066;-87
2021/12/05 22:20:26;;;;;;;16.52;14.68;;;6.50;99.90;;;;;;4978005;28;20031;-94
2021/12/05 22:22:57;;;;;;;16.10;14.40;;;6.50;99.90;;;;;;4980566;28;20019;-86
2021/12/05 22:25:25;;;;;;;18.38;13.88;;;6.50;99.90;;;;;;4988578;28;20042;-81
2021/12/05 22:27:51;;;;;;;15.77;13.98;;;6.40;99.90;;;;;;4985726;28;20109;-81
2021/12/05 22:30:17;;;;;;;16.80;15.00;;;6.50;99.90;;;;;;4977969;28;20045;-93
2021/12/05 22:32:42;;;;;;;18.65;16.70;;;6.40;99.90;;;;;;4972885;28;20424;-87
2021/12/05 22:35:08;;;;;;;18.45;15.18;;;6.50;99.90;;;;;;4978186;28;20101;-81
2021/12/05 22:37:34;;;;;;;15.70;13.60;;;6.40;99.90;;;;;;5051148;23;20111;-82
2021/12/05 22:40:00;;;;;;;15.95;14.25;;;6.40;99.90;;;;;;5067785;22;20053;-82
2021/12/05 22:42:26;;;;;;;15.10;13.50;;;6.50;99.90;;;;;;5045138;28;20021;-80
2021/12/05 22:44:53;;;;;;;18.38;15.40;;;6.50;99.90;;;;;;5050285;22;20020;-82
2021/12/05 22:47:20;;;;;;;19.63;16.23;;;6.50;99.90;;;;;;5028333;23;20080;-82
2021/12/05 22:49:47;;;;;;;17.92;15.23;;;6.50;99.90;;;;;;5022865;28;20033;-87